createdAt,value
2022-12-01T00:01:20.970Z,1.03
2022-12-01T00:03:48.188Z,0.85
2022-12-01T00:06:18.118Z,1.02
2022-12-01T00:09:06.890Z,1.06
2022-12-01T00:11:35.859Z,1.07
2022-12-01T00:14:03.572Z,1.07
2022-12-01T00:16:31.125Z,1.01
2022-12-01T00:18:58.670Z,1.06
2022-12-01T00:21:27.404Z,1.07
2022-12-01T00:23:56.994Z,1.05
2022-12-01T00:26:25.579Z,1.06
2022-12-01T00:28:54.563Z,1.08
2022-12-01T00:31:22.366Z,1.07
2022-12-01T00:33:49.980Z,1.09
2022-12-01T00:36:17.648Z,1.11
2022-12-01T00:38:44.933Z,1.12
2022-12-01T00:41:12.456Z,1.14
2022-12-01T00:43:40.111Z,1.13
2022-12-01T00:46:08.116Z,1.12
2022-12-01T00:48:35.338Z,1.13
2022-12-01T00:51:03.435Z,1.13
2022-12-01T00:53:31.338Z,1.14
2022-12-01T00:55:58.692Z,1.14
2022-12-01T00:58:26.251Z,1.14
2022-12-01T01:01:01.778Z,1.13
2022-12-01T01:03:30.817Z,1.15
2022-12-01T01:06:05.084Z,1.12
2022-12-01T01:08:32.483Z,1.17
2022-12-01T01:11:01.648Z,1.18
2022-12-01T01:13:29.872Z,1.17
2022-12-01T01:16:06.241Z,1.19
2022-12-01T01:18:34.384Z,1.20
2022-12-01T01:21:07.944Z,1.16
2022-12-01T01:23:38.083Z,1.19
2022-12-01T01:26:08.390Z,1.20
2022-12-01T01:28:36.303Z,1.18
2022-12-01T01:31:08.041Z,1.18
2022-12-01T01:33:35.618Z,1.17
2022-12-01T01:36:03.670Z,1.19
2022-12-01T01:38:31.844Z,1.17
2022-12-01T01:40:59.275Z,1.23
2022-12-01T01:43:41.420Z,1.24
2022-12-01T01:46:11.961Z,1.27
2022-12-01T01:48:41.752Z,1.25
2022-12-01T01:51:10.627Z,1.19
2022-12-01T01:53:38.238Z,1.21
2022-12-01T01:56:07.747Z,1.20
2022-12-01T01:58:36.973Z,1.19
2022-12-01T02:01:04.493Z,1.24
2022-12-01T02:03:32.959Z,1.23
2022-12-01T02:06:04.644Z,1.24
2022-12-01T02:08:35.506Z,1.26
2022-12-01T02:11:33.192Z,1.22
2022-12-01T02:14:17.705Z,1.27
2022-12-01T02:16:57.684Z,1.28
2022-12-01T02:19:46.313Z,1.29
2022-12-01T02:22:27.690Z,1.31
2022-12-01T02:25:11.466Z,1.28
2022-12-01T02:27:57.395Z,1.31
2022-12-01T02:30:42.469Z,1.32
2022-12-01T02:33:24.128Z,1.30
2022-12-01T02:36:20.750Z,1.28
2022-12-01T02:39:02.524Z,1.29
2022-12-01T02:41:37.098Z,1.29
2022-12-01T02:44:22.347Z,1.30
2022-12-01T02:46:57.982Z,1.26
2022-12-01T02:49:32.660Z,1.30
2022-12-01T02:52:01.081Z,1.25
2022-12-01T02:54:31.700Z,1.28
2022-12-01T02:56:59.020Z,1.29
2022-12-01T02:59:26.343Z,1.30
2022-12-01T03:02:24.813Z,1.30
2022-12-01T03:05:31.023Z,1.22
2022-12-01T03:08:27.112Z,1.25
2022-12-01T03:10:57.380Z,1.27
2022-12-01T03:13:39.551Z,1.26
2022-12-01T03:16:32.500Z,1.25
2022-12-01T03:19:27.314Z,1.23
2022-12-01T03:22:17.496Z,1.22
2022-12-01T03:24:46.818Z,1.26
2022-12-01T03:27:18.971Z,1.25
2022-12-01T03:29:50.826Z,1.26
2022-12-01T03:32:28.392Z,1.25
2022-12-01T03:35:47.991Z,1.28
2022-12-01T03:38:28.057Z,1.35
2022-12-01T03:41:12.702Z,1.33
2022-12-01T03:43:45.406Z,1.29
2022-12-01T03:46:54.282Z,1.35
2022-12-01T03:49:24.926Z,1.33
2022-12-01T03:52:28.685Z,1.37
2022-12-01T03:55:21.271Z,1.35
2022-12-01T03:57:58.839Z,1.32
2022-12-01T04:00:27.093Z,1.36
2022-12-01T04:02:56.842Z,1.32
2022-12-01T04:05:25.583Z,1.33
2022-12-01T04:07:53.748Z,1.35
2022-12-01T04:10:21.531Z,1.34
2022-12-01T04:12:48.993Z,1.38
2022-12-01T04:15:17.100Z,1.40
2022-12-01T04:17:45.211Z,1.39
2022-12-01T04:20:15.219Z,1.40
2022-12-01T04:22:42.463Z,1.38
2022-12-01T04:25:10.232Z,1.36
2022-12-01T04:27:38.344Z,1.29
2022-12-01T04:30:07.649Z,1.39
2022-12-01T04:32:44.405Z,1.41
2022-12-01T04:35:13.071Z,1.37
2022-12-01T04:37:40.329Z,1.41
2022-12-01T04:40:08.778Z,1.26
2022-12-01T04:42:35.972Z,1.36
2022-12-01T04:45:03.745Z,1.33
2022-12-01T04:47:30.875Z,1.42
2022-12-01T04:49:58.177Z,1.42
2022-12-01T04:52:26.639Z,1.41
2022-12-01T04:54:55.479Z,1.41
2022-12-01T04:57:22.679Z,1.33
2022-12-01T04:59:50.076Z,1.38
2022-12-01T05:02:17.708Z,1.35
2022-12-01T05:04:48.330Z,1.40
2022-12-01T05:07:15.625Z,1.40
2022-12-01T05:09:42.781Z,1.40
2022-12-01T05:12:10.022Z,1.41
2022-12-01T05:14:37.369Z,1.41
2022-12-01T05:17:04.567Z,1.41
2022-12-01T05:19:50.480Z,1.43
2022-12-01T05:22:26.958Z,1.42
2022-12-01T05:25:05.287Z,1.43
2022-12-01T05:27:32.439Z,1.45
2022-12-01T05:29:59.642Z,1.41
2022-12-01T05:32:26.984Z,1.42
2022-12-01T05:34:54.188Z,1.42
2022-12-01T05:37:21.415Z,1.42
2022-12-01T05:39:49.028Z,1.43
2022-12-01T05:42:16.317Z,1.43
2022-12-01T05:44:43.546Z,1.44
2022-12-01T05:47:10.714Z,1.44
2022-12-01T05:49:37.988Z,1.43
2022-12-01T05:52:05.285Z,1.37
2022-12-01T05:54:32.432Z,1.37
2022-12-01T05:56:59.590Z,1.40
2022-12-01T05:59:26.848Z,1.41
2022-12-01T06:01:54.129Z,1.42
2022-12-01T06:04:21.386Z,1.35
2022-12-01T06:06:48.677Z,1.44
2022-12-01T06:09:16.324Z,1.46
2022-12-01T06:11:43.454Z,1.45
2022-12-01T06:14:10.677Z,1.47
2022-12-01T06:16:37.971Z,1.47
2022-12-01T06:19:05.242Z,1.49
2022-12-01T06:21:32.547Z,1.47
2022-12-01T06:23:59.977Z,1.49
2022-12-01T06:26:27.250Z,1.49
2022-12-01T06:28:54.554Z,1.49
2022-12-01T06:31:21.865Z,1.51
2022-12-01T06:33:49.159Z,1.52
2022-12-01T06:36:16.445Z,1.52
2022-12-01T06:38:43.626Z,1.53
2022-12-01T06:41:10.997Z,1.56
2022-12-01T06:43:38.753Z,1.54
2022-12-01T06:46:06.513Z,1.57
2022-12-01T06:48:34.704Z,1.56
2022-12-01T06:51:02.737Z,1.56
2022-12-01T06:53:30.241Z,1.58
2022-12-01T06:56:02.244Z,1.58
2022-12-01T06:58:29.901Z,1.59
2022-12-01T07:00:59.016Z,1.53
2022-12-01T07:03:26.988Z,1.61
2022-12-01T07:06:02.901Z,1.62
2022-12-01T07:08:31.639Z,1.60
2022-12-01T07:11:00.998Z,1.61
2022-12-01T07:13:33.487Z,1.61
2022-12-01T07:16:03.326Z,1.61
2022-12-01T07:18:31.485Z,1.61
2022-12-01T07:21:03.292Z,1.58
2022-12-01T07:23:31.017Z,1.62
2022-12-01T07:26:05.395Z,1.65
2022-12-01T07:28:33.350Z,1.61
2022-12-01T07:31:05.090Z,1.67
2022-12-01T07:33:32.753Z,1.61
2022-12-01T07:36:00.088Z,1.60
2022-12-01T07:38:32.178Z,1.67
2022-12-01T07:41:10.849Z,1.67
2022-12-01T07:43:38.698Z,1.70
2022-12-01T07:46:13.646Z,1.72
2022-12-01T07:48:43.534Z,1.73
2022-12-01T07:51:13.137Z,1.72
2022-12-01T07:53:40.544Z,1.72
2022-12-01T07:56:08.977Z,1.73
2022-12-01T07:58:37.079Z,1.73
2022-12-01T08:01:15.139Z,1.66
2022-12-01T08:03:43.111Z,1.67
2022-12-01T08:06:11.153Z,1.70
2022-12-01T08:08:40.944Z,1.69
2022-12-01T08:11:14.523Z,1.68
2022-12-01T08:13:43.088Z,1.69
2022-12-01T08:16:13.880Z,1.71
2022-12-01T08:18:42.676Z,1.68
2022-12-01T08:21:12.661Z,1.69
2022-12-01T08:23:39.979Z,1.71
2022-12-01T08:26:12.863Z,1.72
2022-12-01T08:28:40.791Z,1.70
2022-12-01T08:31:09.435Z,1.72
2022-12-01T08:33:37.227Z,1.73
2022-12-01T08:36:05.993Z,1.74
2022-12-01T08:38:33.701Z,1.73
2022-12-01T08:41:06.609Z,1.73
2022-12-01T08:43:56.630Z,1.73
2022-12-01T08:46:22.672Z,1.70
2022-12-01T08:48:49.905Z,1.67
2022-12-01T08:51:19.609Z,1.67
2022-12-01T08:53:49.644Z,1.69
2022-12-01T08:56:21.045Z,1.72
2022-12-01T08:58:48.699Z,1.73
2022-12-01T09:01:17.314Z,1.75
2022-12-01T09:03:45.147Z,1.75
2022-12-01T09:06:22.557Z,1.74
2022-12-01T09:08:49.748Z,1.68
2022-12-01T09:11:19.368Z,1.70
2022-12-01T09:13:52.966Z,1.70
2022-12-01T09:16:21.992Z,1.71
2022-12-01T09:18:49.515Z,1.66
2022-12-01T09:21:20.222Z,1.74
2022-12-01T09:23:48.079Z,1.75
2022-12-01T09:26:18.880Z,1.71
2022-12-01T09:28:47.550Z,1.75
2022-12-01T09:31:16.556Z,1.76
2022-12-01T09:33:43.911Z,1.78
2022-12-01T09:36:11.352Z,1.81
2022-12-01T09:38:39.821Z,1.83
2022-12-01T09:41:21.001Z,1.85
2022-12-01T09:44:10.843Z,1.85
2022-12-01T09:46:47.674Z,1.85
2022-12-01T09:49:23.277Z,1.86
2022-12-01T09:51:54.812Z,1.90
2022-12-01T09:54:22.255Z,1.92
2022-12-01T09:56:55.692Z,1.93
2022-12-01T09:59:35.909Z,1.96
2022-12-01T10:02:06.980Z,2.00
2022-12-01T10:04:43.019Z,1.99
2022-12-01T10:07:24.583Z,2.01
2022-12-01T10:09:59.161Z,2.02
2022-12-01T10:12:34.235Z,2.01
2022-12-01T10:15:10.763Z,2.02
2022-12-01T10:18:06.006Z,1.97
2022-12-01T10:21:03.918Z,2.02
2022-12-01T10:24:02.979Z,2.00
2022-12-01T10:26:49.583Z,2.00
2022-12-01T10:29:47.605Z,2.02
2022-12-01T10:32:18.692Z,2.01
2022-12-01T10:34:48.219Z,2.03
2022-12-01T10:37:24.974Z,1.93
2022-12-01T10:39:55.275Z,1.95
2022-12-01T10:42:25.447Z,1.94
2022-12-01T10:44:55.138Z,1.94
2022-12-01T10:47:25.998Z,1.97
2022-12-01T10:49:53.546Z,2.00
2022-12-01T10:52:49.367Z,2.03
2022-12-01T10:55:36.671Z,1.96
2022-12-01T10:58:14.344Z,2.04
2022-12-01T11:00:59.712Z,2.04
2022-12-01T11:03:34.079Z,2.05
2022-12-01T11:06:04.944Z,2.05
2022-12-01T11:08:46.516Z,2.05
2022-12-01T11:11:29.152Z,2.05
2022-12-01T11:13:59.556Z,2.02
2022-12-01T11:16:42.878Z,2.03
2022-12-01T11:19:26.599Z,2.00
2022-12-01T11:22:00.673Z,1.99
2022-12-01T11:24:43.777Z,2.02
2022-12-01T11:27:19.017Z,2.01
2022-12-01T11:29:49.394Z,2.05
2022-12-01T11:32:30.827Z,2.06
2022-12-01T11:35:17.318Z,2.07
2022-12-01T11:38:13.357Z,2.09
2022-12-01T11:40:58.746Z,2.07
2022-12-01T11:43:34.172Z,2.06
2022-12-01T11:46:05.089Z,2.05
2022-12-01T11:48:37.527Z,2.07
2022-12-01T11:51:08.896Z,2.08
2022-12-01T11:53:43.756Z,2.08
2022-12-01T11:56:24.186Z,2.12
2022-12-01T11:59:13.835Z,2.11
2022-12-01T12:02:02.418Z,2.12
2022-12-01T12:04:32.776Z,2.11
2022-12-01T12:07:06.196Z,2.12
2022-12-01T12:09:52.717Z,2.13
2022-12-01T12:12:47.988Z,2.12
2022-12-01T12:18:19.746Z,2.14
2022-12-01T12:20:59.237Z,2.14
2022-12-01T12:23:32.716Z,2.19
2022-12-01T12:26:09.457Z,2.20
2022-12-01T12:28:52.390Z,2.20
2022-12-01T12:31:44.607Z,2.24
2022-12-01T12:34:25.984Z,2.19
2022-12-01T12:37:25.236Z,2.21
2022-12-01T12:40:27.226Z,2.21
2022-12-01T12:43:04.494Z,2.21
2022-12-01T12:45:53.636Z,2.25
2022-12-01T12:51:53.539Z,2.29
2022-12-01T12:54:43.846Z,2.30
2022-12-01T12:57:25.676Z,2.27
2022-12-01T13:00:14.721Z,2.27
2022-12-01T13:02:47.833Z,2.26
2022-12-01T13:05:22.017Z,2.26
2022-12-01T13:07:59.026Z,2.25
2022-12-01T13:10:36.670Z,2.25
2022-12-01T13:13:19.187Z,2.25
2022-12-01T13:15:49.994Z,2.24
2022-12-01T13:18:29.896Z,2.24
2022-12-01T13:20:59.263Z,2.25
2022-12-01T13:23:27.576Z,2.21
2022-12-01T13:25:59.926Z,2.24
2022-12-01T13:28:35.975Z,2.27
2022-12-01T13:31:10.444Z,2.29
2022-12-01T13:33:40.267Z,2.30
2022-12-01T13:36:45.277Z,2.32
2022-12-01T13:39:15.769Z,2.31
2022-12-01T13:41:45.206Z,2.30
2022-12-01T13:44:31.617Z,2.30
2022-12-01T13:47:25.010Z,2.31
2022-12-01T13:49:53.889Z,2.30
2022-12-01T13:52:28.750Z,2.28
2022-12-01T13:55:08.646Z,2.30
2022-12-01T13:57:44.317Z,2.29
2022-12-01T14:00:33.623Z,2.28
2022-12-01T14:03:13.283Z,2.27
2022-12-01T14:05:40.756Z,2.25
2022-12-01T14:08:25.116Z,2.26
2022-12-01T14:11:09.436Z,2.25
2022-12-01T14:13:52.085Z,2.26
2022-12-01T14:16:20.010Z,2.24
2022-12-01T14:18:54.835Z,2.26
2022-12-01T14:21:41.811Z,2.21
2022-12-01T14:24:21.619Z,2.12
2022-12-01T14:26:49.643Z,2.23
2022-12-01T14:29:32.292Z,2.24
2022-12-01T14:32:04.258Z,2.24
2022-12-01T14:34:35.056Z,2.25
2022-12-01T14:37:20.763Z,2.23
2022-12-01T14:39:57.996Z,2.24
2022-12-01T14:42:55.228Z,2.18
2022-12-01T14:45:27.032Z,2.23
2022-12-01T14:48:03.054Z,2.18
2022-12-01T14:50:46.400Z,2.21
2022-12-01T14:53:22.548Z,2.19
2022-12-01T14:55:56.760Z,2.19
2022-12-01T14:58:29.295Z,2.19
2022-12-01T15:01:07.745Z,2.20
2022-12-01T15:03:49.235Z,2.21
2022-12-01T15:06:25.885Z,2.21
2022-12-01T15:09:34.022Z,2.18
2022-12-01T15:12:09.686Z,2.18
2022-12-01T15:14:38.496Z,2.17
2022-12-01T15:17:09.253Z,2.17
2022-12-01T15:19:40.358Z,2.12
2022-12-01T15:22:17.116Z,2.14
2022-12-01T15:24:46.760Z,2.12
2022-12-01T15:27:44.326Z,2.14
2022-12-01T15:30:16.033Z,2.13
2022-12-01T15:32:46.062Z,2.09
2022-12-01T15:35:22.449Z,2.09
2022-12-01T15:37:51.727Z,2.08
2022-12-01T15:41:06.165Z,2.06
2022-12-01T15:43:15.861Z,2.04
2022-12-01T15:45:57.568Z,2.04
2022-12-01T15:48:36.620Z,2.06
2022-12-01T15:51:12.432Z,2.01
2022-12-01T15:53:47.807Z,2.02
2022-12-01T15:56:15.736Z,2.06
2022-12-01T15:58:47.505Z,2.05
2022-12-01T16:01:21.483Z,2.06
2022-12-01T16:03:58.916Z,1.99
2022-12-01T16:06:38.858Z,2.08
2022-12-01T16:09:21.875Z,2.07
2022-12-01T16:12:20.026Z,2.08
2022-12-01T16:14:55.007Z,2.09
2022-12-01T16:17:24.627Z,2.10
2022-12-01T16:20:17.646Z,2.09
2022-12-01T16:22:53.144Z,2.05
2022-12-01T16:25:39.665Z,2.07
2022-12-01T16:28:18.195Z,2.09
2022-12-01T16:30:47.015Z,2.10
2022-12-01T16:33:22.506Z,2.09
2022-12-01T16:35:50.975Z,2.11
2022-12-01T16:38:23.645Z,2.10
2022-12-01T16:40:53.949Z,2.12
2022-12-01T16:43:23.251Z,2.06
2022-12-01T16:45:58.209Z,2.07
2022-12-01T16:48:26.085Z,2.01
2022-12-01T16:50:55.035Z,2.06
2022-12-01T16:53:22.795Z,2.05
2022-12-01T16:55:58.682Z,2.06
2022-12-01T16:58:26.876Z,2.06
2022-12-01T17:00:54.923Z,2.08
2022-12-01T17:03:26.266Z,2.07
2022-12-01T17:05:54.508Z,2.02
2022-12-01T17:08:23.015Z,2.04
2022-12-01T17:10:51.834Z,2.08
2022-12-01T17:13:22.036Z,2.09
2022-12-01T17:15:53.460Z,2.08
2022-12-01T17:18:23.586Z,2.09
2022-12-01T17:21:01.837Z,2.08
2022-12-01T17:23:29.948Z,2.05
2022-12-01T17:25:57.646Z,2.08
2022-12-01T17:28:25.414Z,2.09
2022-12-01T17:30:53.085Z,2.09
2022-12-01T17:33:20.975Z,2.12
2022-12-01T17:35:50.285Z,2.07
2022-12-01T17:38:18.076Z,2.10
2022-12-01T17:40:45.686Z,2.06
2022-12-01T17:43:13.396Z,2.09
2022-12-01T17:45:42.415Z,2.09
2022-12-01T17:48:10.125Z,2.10
2022-12-01T17:50:38.718Z,2.10
2022-12-01T17:53:06.285Z,2.07
2022-12-01T17:55:33.676Z,2.08
2022-12-01T17:58:01.496Z,2.02
2022-12-01T18:00:29.475Z,2.03
2022-12-01T18:02:57.185Z,2.02
2022-12-01T18:05:25.495Z,2.01
2022-12-01T18:07:53.248Z,1.99
2022-12-01T18:10:20.921Z,1.95
2022-12-01T18:12:48.799Z,1.98
2022-12-01T18:15:18.077Z,2.00
2022-12-01T18:17:45.953Z,2.01
2022-12-01T18:20:13.975Z,1.97
2022-12-01T18:22:42.607Z,1.98
2022-12-01T18:25:11.076Z,1.96
2022-12-01T18:27:40.626Z,1.94
2022-12-01T18:30:08.978Z,1.94
2022-12-01T18:32:37.596Z,1.94
2022-12-01T18:35:05.586Z,1.94
2022-12-01T18:37:33.040Z,1.97
2022-12-01T18:40:00.504Z,1.97
2022-12-01T18:42:27.796Z,1.99
2022-12-01T18:44:55.140Z,1.97
2022-12-01T18:47:22.338Z,1.98
2022-12-01T18:49:49.642Z,1.99
2022-12-01T18:52:16.961Z,2.01
2022-12-01T18:54:44.387Z,2.00
2022-12-01T18:57:12.289Z,1.97
2022-12-01T18:59:39.417Z,1.98
2022-12-01T19:02:09.424Z,1.99
2022-12-01T19:04:36.839Z,1.97
2022-12-01T19:07:04.163Z,1.97
2022-12-01T19:09:31.570Z,2.01
2022-12-01T19:12:01.243Z,2.02
2022-12-01T19:14:29.206Z,2.01
2022-12-01T19:16:57.011Z,1.99
2022-12-01T19:19:24.416Z,1.99
2022-12-01T19:21:51.828Z,1.98
2022-12-01T19:24:19.966Z,1.97
2022-12-01T19:26:47.249Z,1.97
2022-12-01T19:29:14.479Z,1.96
2022-12-01T19:31:41.901Z,1.97
2022-12-01T19:34:09.419Z,1.98
2022-12-01T19:36:36.777Z,1.99
2022-12-01T19:39:07.488Z,1.93
2022-12-01T19:41:37.449Z,1.99
2022-12-01T19:44:05.434Z,1.94
2022-12-01T19:46:33.119Z,1.97
2022-12-01T19:49:01.871Z,1.99
2022-12-01T19:51:35.444Z,1.98
2022-12-01T19:54:04.885Z,1.97
2022-12-01T19:56:32.596Z,1.93
2022-12-01T19:59:00.396Z,1.95
2022-12-01T20:01:28.725Z,1.94
2022-12-01T20:03:56.605Z,1.94
2022-12-01T20:06:27.185Z,1.94
2022-12-01T20:08:59.495Z,1.93
2022-12-01T20:11:33.171Z,1.94
2022-12-01T20:14:00.440Z,1.93
2022-12-01T20:16:28.770Z,1.94
2022-12-01T20:18:56.766Z,1.93
2022-12-01T20:21:27.111Z,1.95
2022-12-01T20:24:15.415Z,1.94
2022-12-01T20:26:46.600Z,1.86
2022-12-01T20:29:18.075Z,1.91
2022-12-01T20:31:46.313Z,1.90
2022-12-01T20:34:17.587Z,1.86
2022-12-01T20:36:46.208Z,1.90
2022-12-01T20:39:13.995Z,1.90
2022-12-01T20:41:42.348Z,1.84
2022-12-01T20:44:11.477Z,1.85
2022-12-01T20:46:41.235Z,1.87
2022-12-01T20:49:08.793Z,1.81
2022-12-01T20:51:36.038Z,1.86
2022-12-01T20:54:27.280Z,1.86
2022-12-01T20:56:52.662Z,1.81
2022-12-01T20:59:19.941Z,1.83
2022-12-01T21:01:47.107Z,1.84
2022-12-01T21:04:14.623Z,1.85
2022-12-01T21:06:42.434Z,1.82
2022-12-01T21:09:09.928Z,1.86
2022-12-01T21:12:03.980Z,1.84
2022-12-01T21:14:39.785Z,1.85
2022-12-01T21:17:30.037Z,1.84
2022-12-01T21:20:02.294Z,1.82
2022-12-01T21:22:30.691Z,1.80
2022-12-01T21:25:07.812Z,1.81
2022-12-01T21:27:35.091Z,1.77
2022-12-01T21:30:08.593Z,1.77
2022-12-01T21:32:42.554Z,1.77
2022-12-01T21:35:25.103Z,1.84
2022-12-01T21:37:59.413Z,1.84
2022-12-01T21:40:27.790Z,1.80
2022-12-01T21:42:56.896Z,1.83
2022-12-01T21:45:30.423Z,1.85
2022-12-01T21:48:11.058Z,1.88
2022-12-01T21:50:38.327Z,1.88
2022-12-01T21:53:16.285Z,1.88
2022-12-01T21:55:46.428Z,1.84
2022-12-01T21:58:31.368Z,1.81
2022-12-01T22:00:59.756Z,1.80
2022-12-01T22:03:31.909Z,1.79
2022-12-01T22:06:28.216Z,1.78
2022-12-01T22:08:53.646Z,1.77
2022-12-01T22:11:25.307Z,1.76
2022-12-01T22:14:09.819Z,1.72
2022-12-01T22:16:53.404Z,1.77
2022-12-01T22:19:30.604Z,1.74
2022-12-01T22:22:03.384Z,1.73
2022-12-01T22:24:52.086Z,1.75
2022-12-01T22:27:19.987Z,1.73
2022-12-01T22:29:49.392Z,1.71
2022-12-01T22:32:16.539Z,1.70
2022-12-01T22:34:51.591Z,1.70
2022-12-01T22:37:24.745Z,1.70
2022-12-01T22:39:56.649Z,1.70
2022-12-01T22:42:33.631Z,1.70
2022-12-01T22:45:24.048Z,1.68
2022-12-01T22:47:56.526Z,1.67
2022-12-01T22:50:29.714Z,1.65
2022-12-01T22:53:22.078Z,1.59
2022-12-01T22:55:53.761Z,1.64
2022-12-01T22:58:28.173Z,1.61
2022-12-01T23:00:57.972Z,1.68
2022-12-01T23:03:26.875Z,1.70
2022-12-01T23:05:57.059Z,1.60
2022-12-01T23:08:29.514Z,1.71
2022-12-01T23:11:04.745Z,1.66
2022-12-01T23:13:35.348Z,1.66
2022-12-01T23:16:05.716Z,1.63
2022-12-01T23:18:48.227Z,1.62
2022-12-01T23:21:31.114Z,1.61
2022-12-01T23:24:27.701Z,1.63
2022-12-01T23:27:00.432Z,1.64
2022-12-01T23:29:27.932Z,1.65
2022-12-01T23:31:55.472Z,1.60
2022-12-01T23:34:23.039Z,1.66
2022-12-01T23:36:51.261Z,1.65
2022-12-01T23:39:21.008Z,1.64
2022-12-01T23:41:51.311Z,1.57
2022-12-01T23:44:31.668Z,1.61
2022-12-01T23:46:59.192Z,1.60
2022-12-01T23:49:31.653Z,1.64
2022-12-01T23:52:02.527Z,1.62
2022-12-01T23:54:39.095Z,1.60
2022-12-01T23:57:21.914Z,1.62
